Reese, Michigan
Current Conditions -  °F | °C
As of 4:55 AM on Saturday 25 Oct 2014 (Local Time) from KHYX Reporting Station
Haze Haze  
Wind Chill: 50°   Ceiling: 9000
Heat Index: 50°   Visibility: 5mi
Dew Point: 50°   Wind: 7mph
Humidity: 100%   Direction: 200°SSW
Pressure: 29.82"   Gusts: NA
Location:  43.45°N, 83.7°W
Report Text: KHYX 250855Z AUTO 20006KT 5SM BR OVC090 10/10 A2982 RMK AO2
Loading
Personal Weather Stations






























Interactive Weather Map
Tropical Storm Tracking
New forecast layout! Learn more

10-Day Weather Forecast

Advertisements
Track Severe Weather on mobile